createdAt,value
2018-11-14T00:00:47.570Z,59.60
2018-11-14T00:03:16.706Z,64.07
2018-11-14T00:05:45.865Z,73.37
2018-11-14T00:08:14.899Z,53.87
2018-11-14T00:10:45.064Z,53.63
2018-11-14T00:13:13.927Z,61.83
2018-11-14T00:15:42.761Z,53.67
2018-11-14T00:18:12.083Z,51.60
2018-11-14T00:20:41.670Z,44.67
2018-11-14T00:23:11.605Z,45.07
2018-11-14T00:25:40.605Z,57.20
2018-11-14T00:28:09.567Z,54.80
2018-11-14T00:30:39.129Z,48.77
2018-11-14T00:33:09.966Z,44.93
2018-11-14T00:35:39.757Z,45.83
2018-11-14T00:38:08.523Z,47.00
2018-11-14T00:40:38.428Z,43.67
2018-11-14T00:43:09.065Z,66.87
2018-11-14T00:45:38.785Z,52.90
2018-11-14T00:48:07.892Z,48.83
2018-11-14T00:50:36.912Z,55.00
2018-11-14T00:53:38.015Z,44.83
2018-11-14T00:56:07.872Z,55.27
2018-11-14T00:58:36.969Z,51.00
2018-11-14T01:01:08.264Z,47.93
2018-11-14T01:03:38.338Z,56.73
2018-11-14T01:06:08.046Z,57.70
2018-11-14T01:08:43.133Z,59.10
2018-11-14T01:11:12.355Z,57.67
2018-11-14T01:13:43.619Z,57.13
2018-11-14T01:16:14.317Z,47.10
2018-11-14T01:18:43.431Z,52.03
2018-11-14T01:21:13.173Z,52.57
2018-11-14T01:23:43.667Z,54.60
2018-11-14T01:26:16.479Z,62.80
2018-11-14T01:28:48.861Z,52.50
2018-11-14T01:31:18.069Z,57.20
2018-11-14T01:33:48.032Z,52.83
2018-11-14T01:36:17.273Z,60.57
2018-11-14T01:38:47.325Z,57.63
2018-11-14T01:41:17.756Z,62.20
2018-11-14T01:43:54.905Z,53.73
2018-11-14T01:46:24.473Z,61.53
2018-11-14T01:48:54.469Z,65.40
2018-11-14T01:51:25.714Z,54.33
2018-11-14T01:53:56.406Z,65.83
2018-11-14T01:56:27.733Z,66.47
2018-11-14T01:59:00.264Z,55.13
2018-11-14T02:01:30.791Z,83.00
2018-11-14T02:04:00.082Z,68.73
2018-11-14T02:06:29.608Z,67.17
2018-11-14T02:08:58.602Z,63.57
2018-11-14T02:11:28.691Z,74.60
2018-11-14T02:13:57.762Z,67.63
2018-11-14T02:16:29.714Z,62.90
2018-11-14T02:19:02.795Z,62.23
2018-11-14T02:21:33.047Z,67.50
2018-11-14T02:24:11.441Z,67.27
2018-11-14T02:26:42.406Z,62.90
2018-11-14T02:29:12.743Z,71.33
2018-11-14T02:31:42.682Z,55.77
2018-11-14T02:34:14.006Z,57.37
2018-11-14T02:36:43.822Z,52.50
2018-11-14T02:39:12.878Z,52.57
2018-11-14T02:41:43.316Z,47.60
2018-11-14T02:44:12.595Z,58.77
2018-11-14T02:46:41.599Z,58.27
2018-11-14T02:49:10.678Z,58.17
2018-11-14T02:51:42.578Z,50.23
2018-11-14T02:54:27.362Z,55.50
2018-11-14T02:56:56.787Z,43.33
2018-11-14T02:59:27.662Z,65.80
2018-11-14T03:01:57.534Z,50.57
2018-11-14T03:04:27.518Z,53.80
2018-11-14T03:06:57.368Z,41.53
2018-11-14T03:09:28.498Z,47.10
2018-11-14T03:11:58.725Z,41.97
2018-11-14T03:14:28.132Z,52.23
2018-11-14T03:16:58.572Z,54.00
2018-11-14T03:19:27.654Z,49.20
2018-11-14T03:21:56.728Z,54.10
2018-11-14T03:24:25.679Z,43.97
2018-11-14T03:26:55.305Z,50.47
2018-11-14T03:29:28.390Z,55.03
2018-11-14T03:31:58.144Z,50.97
2018-11-14T03:34:26.984Z,52.37
2018-11-14T03:36:56.534Z,38.63
2018-11-14T03:39:27.080Z,49.23
2018-11-14T03:41:56.223Z,44.33
2018-11-14T03:44:25.112Z,39.30
2018-11-14T03:47:03.034Z,45.27
2018-11-14T03:49:32.970Z,44.50
2018-11-14T03:52:02.098Z,45.17
2018-11-14T03:54:31.194Z,42.43
2018-11-14T03:57:00.525Z,38.43
2018-11-14T03:59:29.706Z,45.17
2018-11-14T04:01:59.496Z,39.23
2018-11-14T04:04:35.494Z,39.03
2018-11-14T04:07:07.849Z,46.50
2018-11-14T04:09:37.477Z,34.60
2018-11-14T04:12:06.843Z,44.63
2018-11-14T04:14:35.997Z,40.33
2018-11-14T04:17:06.364Z,41.23
2018-11-14T04:19:35.584Z,36.70
2018-11-14T04:22:11.168Z,40.10
2018-11-14T04:24:40.774Z,40.23
2018-11-14T04:27:10.318Z,34.47
2018-11-14T04:29:39.592Z,40.50
2018-11-14T04:32:10.380Z,43.53
2018-11-14T04:34:39.664Z,34.63
2018-11-14T04:37:10.376Z,46.17
2018-11-14T04:39:45.734Z,34.70
2018-11-14T04:42:15.658Z,39.57
2018-11-14T04:44:44.733Z,39.93
2018-11-14T04:47:17.412Z,35.60
2018-11-14T04:49:48.472Z,36.40
2018-11-14T04:52:19.630Z,29.90
2018-11-14T04:54:49.226Z,46.93
2018-11-14T04:57:24.891Z,35.43
2018-11-14T04:59:53.814Z,37.10
2018-11-14T05:02:23.434Z,34.87
2018-11-14T05:04:52.972Z,32.37
2018-11-14T05:07:23.826Z,36.20
2018-11-14T05:09:52.878Z,31.73
2018-11-14T05:12:23.959Z,31.77
2018-11-14T05:14:56.112Z,34.23
2018-11-14T05:17:25.243Z,35.57
2018-11-14T05:19:54.276Z,33.87
2018-11-14T05:22:23.312Z,34.30
2018-11-14T05:24:53.589Z,38.50
2018-11-14T05:27:25.712Z,26.90
2018-11-14T05:29:57.019Z,32.90
2018-11-14T05:32:34.806Z,33.27
2018-11-14T05:35:05.539Z,40.87
2018-11-14T05:37:36.213Z,30.73
2018-11-14T05:40:06.616Z,32.20
2018-11-14T05:42:46.087Z,34.47
2018-11-14T05:45:20.914Z,32.63
2018-11-14T05:47:52.302Z,38.57
2018-11-14T05:50:22.762Z,28.07
2018-11-14T05:52:55.000Z,33.27
2018-11-14T05:55:24.624Z,33.03
2018-11-14T05:57:55.688Z,33.77
2018-11-14T06:00:30.219Z,28.43
2018-11-14T06:03:02.580Z,35.77
2018-11-14T06:05:37.297Z,35.27
2018-11-14T06:08:08.020Z,33.60
2018-11-14T06:10:42.366Z,33.10
2018-11-14T06:13:12.566Z,33.67
2018-11-14T06:15:41.733Z,33.57
2018-11-14T06:18:13.161Z,33.90
2018-11-14T06:20:43.739Z,32.87
2018-11-14T06:23:13.477Z,32.03
2018-11-14T06:25:43.390Z,34.37
2018-11-14T06:28:13.469Z,29.83
2018-11-14T06:30:44.657Z,31.27
2018-11-14T06:33:15.318Z,29.93
2018-11-14T06:35:44.867Z,34.60
2018-11-14T06:38:18.147Z,39.37
2018-11-14T06:40:47.242Z,27.90
2018-11-14T06:43:16.148Z,34.37
2018-11-14T06:45:46.883Z,31.77
2018-11-14T06:48:16.159Z,36.13
2018-11-14T06:50:45.161Z,40.53
2018-11-14T06:53:14.059Z,37.20
2018-11-14T06:55:43.632Z,34.53
2018-11-14T06:58:13.263Z,36.30
2018-11-14T07:00:42.928Z,37.37
2018-11-14T07:03:12.418Z,32.87
2018-11-14T07:05:41.594Z,36.30
2018-11-14T07:10:47.005Z,35.40
2018-11-14T07:13:16.280Z,41.93
2018-11-14T07:15:45.224Z,38.23
2018-11-14T07:18:14.262Z,34.27
2018-11-14T07:20:45.632Z,33.20
2018-11-14T07:23:14.489Z,38.33
2018-11-14T07:25:43.600Z,31.37
2018-11-14T07:28:12.490Z,33.97
2018-11-14T07:30:41.572Z,36.43
2018-11-14T07:33:11.374Z,37.20
2018-11-14T07:35:48.225Z,39.97
2018-11-14T07:38:32.554Z,44.03
2018-11-14T07:44:37.326Z,36.47
2018-11-14T07:47:06.274Z,33.27
2018-11-14T07:49:35.344Z,39.93
2018-11-14T07:52:04.346Z,36.13
2018-11-14T07:54:34.048Z,35.63
2018-11-14T07:57:04.426Z,32.40
2018-11-14T07:59:34.947Z,38.13
2018-11-14T08:02:10.231Z,48.80
2018-11-14T08:04:39.078Z,35.10
2018-11-14T08:07:11.003Z,34.53
2018-11-14T08:09:40.573Z,36.97
2018-11-14T08:12:09.619Z,35.17
2018-11-14T08:14:38.536Z,33.83
2018-11-14T08:17:13.825Z,33.50
2018-11-14T08:19:42.837Z,38.03
2018-11-14T08:22:11.861Z,36.20
2018-11-14T08:24:42.141Z,30.57
2018-11-14T08:27:11.075Z,38.20
2018-11-14T08:29:40.682Z,38.50
2018-11-14T08:32:09.578Z,33.20
2018-11-14T08:34:38.741Z,34.43
2018-11-14T08:37:08.382Z,28.70
2018-11-14T08:39:37.942Z,38.90
2018-11-14T08:42:07.238Z,31.37
2018-11-14T08:44:36.056Z,37.30
2018-11-14T08:47:05.942Z,36.67
2018-11-14T08:49:34.683Z,33.77
2018-11-14T08:52:03.755Z,29.20
2018-11-14T08:54:32.815Z,34.40
2018-11-14T08:57:01.909Z,30.00
2018-11-14T08:59:30.957Z,25.00
2018-11-14T09:02:00.072Z,27.77
2018-11-14T09:04:28.897Z,39.03
2018-11-14T09:06:57.792Z,36.13
2018-11-14T09:09:28.321Z,28.03
2018-11-14T09:11:58.279Z,33.53
2018-11-14T09:14:27.295Z,30.13
2018-11-14T09:16:57.210Z,31.87
2018-11-14T09:19:27.758Z,29.17
2018-11-14T09:21:56.694Z,29.90
2018-11-14T09:24:26.580Z,31.73
2018-11-14T09:26:57.503Z,33.73
2018-11-14T09:29:26.400Z,29.40
2018-11-14T09:31:55.546Z,29.27
2018-11-14T09:34:25.263Z,40.73
2018-11-14T09:36:54.131Z,29.27
2018-11-14T09:39:23.045Z,32.23
2018-11-14T09:41:52.059Z,29.70
2018-11-14T09:44:21.240Z,31.37
2018-11-14T09:46:50.165Z,28.93
2018-11-14T09:49:19.734Z,25.80
2018-11-14T09:51:48.688Z,37.03
2018-11-14T09:54:17.936Z,32.97
2018-11-14T09:56:46.787Z,24.93
2018-11-14T09:59:15.560Z,26.70
2018-11-14T10:01:44.456Z,29.57
2018-11-14T10:04:13.653Z,28.07
2018-11-14T10:06:43.041Z,28.87
2018-11-14T10:09:13.353Z,26.93
2018-11-14T10:11:42.189Z,25.10
2018-11-14T10:14:11.729Z,29.83
2018-11-14T10:16:40.644Z,25.87
2018-11-14T10:19:10.944Z,23.33
2018-11-14T10:21:47.051Z,30.07
2018-11-14T10:24:18.598Z,29.43
2018-11-14T10:26:48.843Z,33.77
2018-11-14T10:29:21.824Z,26.97
2018-11-14T10:32:06.452Z,31.07
2018-11-14T10:34:35.520Z,24.43
2018-11-14T10:37:04.395Z,24.03
2018-11-14T10:39:33.175Z,32.83
2018-11-14T10:42:02.129Z,27.83
2018-11-14T10:44:30.982Z,24.63
2018-11-14T10:47:00.081Z,31.20
2018-11-14T10:49:31.353Z,31.43
2018-11-14T10:52:00.385Z,29.13
2018-11-14T10:54:29.288Z,23.27
2018-11-14T10:56:58.564Z,27.90
2018-11-14T10:59:29.184Z,34.80
2018-11-14T11:02:04.385Z,30.13
2018-11-14T11:04:38.802Z,24.87
2018-11-14T11:07:15.309Z,25.27
2018-11-14T11:09:49.603Z,24.97
2018-11-14T11:12:24.930Z,28.37
2018-11-14T11:14:59.662Z,25.63
2018-11-14T11:17:33.783Z,30.67
2018-11-14T11:20:04.173Z,26.60
2018-11-14T11:22:34.417Z,29.40
2018-11-14T11:25:03.734Z,28.67
2018-11-14T11:27:34.287Z,22.30
2018-11-14T11:30:03.685Z,27.63
2018-11-14T11:32:34.803Z,30.00
2018-11-14T11:35:03.975Z,23.73
2018-11-14T11:37:36.948Z,21.77
2018-11-14T11:40:09.188Z,26.20
2018-11-14T11:42:42.882Z,22.17
2018-11-14T11:45:15.567Z,22.83
2018-11-14T11:47:48.820Z,17.37
2018-11-14T11:50:21.891Z,27.37
2018-11-14T11:52:50.969Z,22.40
2018-11-14T11:55:21.905Z,22.40
2018-11-14T11:57:52.104Z,18.13
2018-11-14T12:00:22.943Z,20.13
2018-11-14T12:02:56.294Z,22.67
2018-11-14T12:05:26.778Z,25.00
2018-11-14T12:07:57.072Z,22.53
2018-11-14T12:10:28.340Z,22.23
2018-11-14T12:12:57.416Z,22.13
2018-11-14T12:15:28.230Z,21.93
2018-11-14T12:17:58.004Z,20.37
2018-11-14T12:20:27.179Z,20.77
2018-11-14T12:22:56.624Z,24.90
2018-11-14T12:25:25.781Z,21.97
2018-11-14T12:27:55.468Z,21.13
2018-11-14T12:30:25.311Z,23.50
2018-11-14T12:32:55.079Z,25.77
2018-11-14T12:35:26.236Z,18.77
2018-11-14T12:37:56.172Z,19.73
2018-11-14T12:40:25.299Z,16.30
2018-11-14T12:42:55.059Z,22.90
2018-11-14T12:45:25.304Z,23.87
2018-11-14T12:47:54.867Z,21.67
2018-11-14T12:50:24.132Z,21.73
2018-11-14T12:52:54.617Z,21.37
2018-11-14T12:55:23.915Z,19.43
2018-11-14T12:57:53.070Z,18.60
2018-11-14T13:00:22.997Z,27.20
2018-11-14T13:02:52.021Z,20.30
2018-11-14T13:05:23.355Z,20.10
2018-11-14T13:07:52.285Z,19.13
2018-11-14T13:10:22.360Z,19.97
2018-11-14T13:19:38.589Z,21.60
2018-11-14T13:28:55.401Z,25.10
2018-11-14T13:31:27.089Z,15.30
2018-11-14T13:33:57.960Z,26.87
2018-11-14T13:36:28.230Z,21.73
2018-11-14T13:39:02.036Z,17.50
2018-11-14T13:41:31.076Z,13.80
2018-11-14T13:44:01.337Z,22.43
2018-11-14T13:46:30.310Z,21.70
2018-11-14T13:49:00.338Z,14.00
2018-11-14T13:51:32.359Z,20.77
2018-11-14T13:54:02.856Z,25.57
2018-11-14T13:56:32.997Z,24.07
2018-11-14T13:59:02.065Z,19.37
2018-11-14T14:01:33.062Z,16.03
2018-11-14T14:04:15.923Z,23.30
2018-11-14T14:06:52.077Z,23.97
2018-11-14T14:09:22.693Z,21.63
2018-11-14T14:11:52.891Z,19.47
2018-11-14T14:14:25.784Z,25.70
2018-11-14T14:16:57.218Z,19.77
2018-11-14T14:19:28.587Z,16.30
2018-11-14T14:22:00.333Z,20.67
2018-11-14T14:24:34.843Z,20.23
2018-11-14T14:27:07.173Z,25.93
2018-11-14T14:29:38.805Z,22.20
2018-11-14T14:32:11.145Z,17.53
2018-11-14T14:34:49.329Z,18.90
2018-11-14T14:37:20.271Z,23.23
2018-11-14T14:39:49.252Z,22.00
2018-11-14T14:42:18.328Z,16.57
2018-11-14T14:44:48.198Z,17.13
2018-11-14T14:47:17.888Z,18.77
2018-11-14T14:49:48.196Z,14.37
2018-11-14T14:52:17.799Z,18.90
2018-11-14T14:54:46.803Z,18.07
2018-11-14T14:57:17.727Z,20.13
2018-11-14T14:59:48.012Z,18.17
2018-11-14T15:02:21.426Z,22.27
2018-11-14T15:04:55.144Z,14.10
2018-11-14T15:07:25.277Z,19.40
2018-11-14T15:09:54.207Z,23.00
2018-11-14T15:12:23.769Z,10.60
2018-11-14T15:14:52.849Z,16.57
2018-11-14T15:17:22.314Z,14.90
2018-11-14T15:19:51.143Z,18.97
2018-11-14T15:22:19.962Z,10.90
2018-11-14T15:24:50.075Z,10.17
2018-11-14T15:27:19.009Z,10.77
2018-11-14T15:29:47.870Z,10.87
2018-11-14T15:32:17.098Z,14.27
2018-11-14T15:34:47.667Z,17.20
2018-11-14T15:37:17.890Z,12.57
2018-11-14T15:39:48.098Z,13.87
2018-11-14T15:42:47.989Z,12.80
2018-11-14T15:45:18.820Z,15.77
2018-11-14T15:48:16.834Z,18.13
2018-11-14T15:50:45.855Z,21.13
2018-11-14T15:53:15.612Z,16.53
2018-11-14T15:55:46.390Z,18.77
2018-11-14T15:58:16.706Z,19.53
2018-11-14T16:00:46.132Z,15.63
2018-11-14T16:03:17.234Z,19.20
2018-11-14T16:05:46.640Z,16.77
2018-11-14T16:08:15.416Z,20.20
2018-11-14T16:10:45.192Z,23.73
2018-11-14T16:13:14.111Z,21.77
2018-11-14T16:15:43.599Z,15.70
2018-11-14T16:18:13.503Z,17.00
2018-11-14T16:20:42.809Z,14.07
2018-11-14T16:29:57.480Z,16.77
2018-11-14T16:36:11.946Z,17.03
2018-11-14T16:52:10.594Z,24.57
2018-11-14T16:55:09.264Z,19.73
2018-11-14T17:02:38.674Z,19.53
2018-11-14T17:06:10.465Z,22.97
2018-11-14T17:09:10.952Z,26.40
2018-11-14T17:12:00.162Z,19.23
2018-11-14T17:18:15.540Z,20.03
2018-11-14T17:34:32.644Z,27.37
2018-11-14T17:37:01.712Z,22.03
2018-11-14T17:39:30.474Z,24.80
2018-11-14T17:41:59.653Z,25.33
2018-11-14T17:44:28.326Z,25.87
2018-11-14T17:46:57.111Z,28.60
2018-11-14T17:49:25.909Z,18.57
2018-11-14T17:51:54.720Z,24.07
2018-11-14T17:54:23.695Z,25.73
2018-11-14T17:56:53.259Z,21.30
2018-11-14T17:59:22.052Z,24.73
2018-11-14T18:01:51.000Z,20.23
2018-11-14T18:04:19.831Z,25.50
2018-11-14T18:06:52.685Z,22.90
2018-11-14T18:09:21.676Z,27.97
2018-11-14T18:11:51.634Z,25.13
2018-11-14T18:14:20.450Z,25.97
2018-11-14T18:16:49.404Z,26.93
2018-11-14T18:19:19.648Z,19.50
2018-11-14T18:21:49.442Z,25.13
2018-11-14T18:24:18.882Z,29.53
2018-11-14T18:26:55.367Z,24.47
2018-11-14T18:29:26.489Z,25.77
2018-11-14T18:32:03.804Z,22.60
2018-11-14T18:34:34.915Z,30.97
2018-11-14T18:37:03.922Z,25.97
2018-11-14T18:39:36.060Z,27.70
2018-11-14T18:45:40.555Z,27.67
2018-11-14T18:48:09.621Z,23.33
2018-11-14T18:50:38.736Z,23.00
2018-11-14T18:53:09.470Z,20.57
2018-11-14T18:55:40.951Z,24.40
2018-11-14T18:58:17.692Z,21.47
2018-11-14T19:00:49.909Z,20.83
2018-11-14T19:03:20.689Z,25.93
2018-11-14T19:05:54.098Z,27.60
2018-11-14T19:08:27.234Z,21.57
2018-11-14T19:10:59.880Z,28.20
2018-11-14T19:13:31.868Z,19.53
2018-11-14T19:16:06.460Z,23.33
2018-11-14T19:18:48.936Z,23.37
2018-11-14T19:21:18.342Z,25.13
2018-11-14T19:23:48.939Z,29.60
2018-11-14T19:26:20.889Z,22.87
2018-11-14T19:28:50.244Z,19.77
2018-11-14T19:31:22.413Z,23.00
2018-11-14T19:33:51.705Z,26.87
2018-11-14T19:36:26.619Z,25.03
2018-11-14T19:38:56.898Z,24.23
2018-11-14T19:44:37.239Z,30.53
2018-11-14T19:47:08.284Z,32.53
2018-11-14T19:52:34.233Z,29.33
2018-11-14T19:55:03.445Z,27.67
2018-11-14T19:57:32.695Z,28.07
2018-11-14T20:00:03.551Z,28.30
2018-11-14T20:02:33.389Z,29.17
2018-11-14T20:05:08.020Z,30.30
2018-11-14T20:07:39.486Z,30.07
2018-11-14T20:10:12.482Z,26.20
2018-11-14T20:12:41.993Z,29.27
2018-11-14T20:15:18.838Z,28.90
2018-11-14T20:17:52.532Z,30.87
2018-11-14T20:20:22.966Z,33.23
2018-11-14T20:22:52.001Z,26.00
2018-11-14T20:25:20.941Z,26.83
2018-11-14T20:27:50.734Z,23.10
2018-11-14T20:30:22.967Z,34.13
2018-11-14T20:32:52.928Z,33.30
2018-11-14T20:35:23.575Z,30.07
2018-11-14T20:37:53.542Z,26.57
2018-11-14T20:43:34.498Z,25.70
2018-11-14T20:46:04.014Z,31.77
2018-11-14T20:48:33.036Z,27.93
2018-11-14T20:51:04.456Z,25.50
2018-11-14T20:53:34.065Z,24.47
2018-11-14T20:56:03.612Z,22.77
2018-11-14T20:58:32.527Z,23.90
2018-11-14T21:01:02.337Z,29.43
2018-11-14T21:03:31.449Z,29.00
2018-11-14T21:06:10.095Z,27.27
2018-11-14T21:08:40.332Z,24.07
2018-11-14T21:11:16.195Z,29.83
2018-11-14T21:20:00.433Z,27.53
2018-11-14T21:22:32.564Z,28.57
2018-11-14T21:25:03.362Z,23.83
2018-11-14T21:27:32.627Z,27.13
2018-11-14T21:30:12.185Z,25.87
2018-11-14T21:32:48.856Z,27.77
2018-11-14T21:35:20.533Z,26.37
2018-11-14T21:37:54.361Z,30.93
2018-11-14T21:40:40.928Z,27.57
2018-11-14T21:43:10.343Z,28.20
2018-11-14T21:45:43.636Z,25.30
2018-11-14T21:48:16.640Z,30.60
2018-11-14T21:50:52.993Z,31.33
2018-11-14T21:53:24.122Z,29.13
2018-11-14T21:55:56.193Z,40.33
2018-11-14T21:58:26.611Z,31.03
2018-11-14T22:01:06.039Z,29.90
2018-11-14T22:03:37.749Z,33.83
2018-11-14T22:06:10.672Z,36.83
2018-11-14T22:08:41.646Z,31.60
2018-11-14T22:11:15.590Z,33.23
2018-11-14T22:13:47.578Z,28.63
2018-11-14T22:16:18.107Z,33.23
2018-11-14T22:18:48.104Z,33.47
2018-11-14T22:21:19.214Z,29.60
2018-11-14T22:23:48.435Z,32.27
2018-11-14T22:26:20.540Z,35.50
2018-11-14T22:28:50.596Z,35.93
2018-11-14T22:31:19.828Z,30.90
2018-11-14T22:33:48.812Z,29.83
2018-11-14T22:36:17.764Z,28.17
2018-11-14T22:38:49.126Z,32.57
2018-11-14T22:41:22.212Z,34.33
2018-11-14T22:43:57.249Z,37.73
2018-11-14T22:46:31.190Z,41.50
2018-11-14T22:49:02.517Z,36.20
2018-11-14T22:51:37.852Z,36.33
2018-11-14T22:54:15.242Z,35.47
2018-11-14T22:56:45.925Z,35.50
2018-11-14T22:59:18.079Z,32.57
2018-11-14T23:01:47.962Z,37.97
2018-11-14T23:04:19.606Z,39.57
2018-11-14T23:06:48.596Z,33.40
2018-11-14T23:09:17.523Z,35.13
2018-11-14T23:11:47.489Z,35.03
2018-11-14T23:15:22.581Z,43.93
2018-11-14T23:17:52.465Z,35.43
2018-11-14T23:20:21.789Z,40.60
2018-11-14T23:22:51.541Z,35.37
2018-11-14T23:25:21.049Z,34.57
2018-11-14T23:27:51.935Z,38.40
2018-11-14T23:30:23.801Z,37.50
2018-11-14T23:32:53.925Z,63.07
2018-11-14T23:35:26.128Z,53.97
2018-11-14T23:37:57.251Z,43.57
2018-11-14T23:40:26.366Z,41.13
2018-11-14T23:42:57.207Z,49.23
2018-11-14T23:45:36.131Z,44.30
2018-11-14T23:48:04.876Z,55.03
2018-11-14T23:50:33.608Z,48.10
2018-11-14T23:53:03.724Z,46.47
2018-11-14T23:55:32.948Z,43.00
2018-11-14T23:58:01.847Z,45.57
